sensor_id;sensor_type;location;lat;lon;timestamp;P1;durP1;ratioP1;P2;durP2;ratioP2
65863;SDS011;52639;51.180;20.460;2023-02-15T00:03:11;45.30;;;18.55;;
65863;SDS011;52639;51.180;20.460;2023-02-15T00:07:16;45.35;;;19.48;;
65863;SDS011;52639;51.180;20.460;2023-02-15T00:11:20;41.45;;;18.60;;
65863;SDS011;52639;51.180;20.460;2023-02-15T00:15:37;42.80;;;17.45;;
65863;SDS011;52639;51.180;20.460;2023-02-15T00:19:40;48.08;;;18.92;;
65863;SDS011;52639;51.180;20.460;2023-02-15T00:23:45;46.95;;;18.80;;
65863;SDS011;52639;51.180;20.460;2023-02-15T00:27:48;50.47;;;20.48;;
65863;SDS011;52639;51.180;20.460;2023-02-15T00:31:52;43.38;;;19.23;;
65863;SDS011;52639;51.180;20.460;2023-02-15T00:35:55;48.22;;;18.83;;
65863;SDS011;52639;51.180;20.460;2023-02-15T00:40:00;52.90;;;20.10;;
65863;SDS011;52639;51.180;20.460;2023-02-15T00:44:03;50.45;;;20.83;;
65863;SDS011;52639;51.180;20.460;2023-02-15T00:48:07;48.15;;;18.10;;
65863;SDS011;52639;51.180;20.460;2023-02-15T00:52:10;44.70;;;18.70;;
65863;SDS011;52639;51.180;20.460;2023-02-15T00:56:14;49.97;;;21.33;;
65863;SDS011;52639;51.180;20.460;2023-02-15T01:00:17;44.78;;;18.08;;
65863;SDS011;52639;51.180;20.460;2023-02-15T01:04:20;43.33;;;18.83;;
65863;SDS011;52639;51.180;20.460;2023-02-15T01:08:26;45.90;;;18.63;;
65863;SDS011;52639;51.180;20.460;2023-02-15T01:12:31;43.83;;;19.40;;
65863;SDS011;52639;51.180;20.460;2023-02-15T01:16:34;51.92;;;20.08;;
65863;SDS011;52639;51.180;20.460;2023-02-15T01:20:40;46.17;;;17.58;;
65863;SDS011;52639;51.180;20.460;2023-02-15T01:24:43;45.80;;;18.90;;
65863;SDS011;52639;51.180;20.460;2023-02-15T01:28:47;44.88;;;18.73;;
65863;SDS011;52639;51.180;20.460;2023-02-15T01:32:50;53.20;;;20.98;;
65863;SDS011;52639;51.180;20.460;2023-02-15T01:36:53;49.83;;;19.90;;
65863;SDS011;52639;51.180;20.460;2023-02-15T01:40:56;46.55;;;19.33;;
65863;SDS011;52639;51.180;20.460;2023-02-15T01:45:23;48.30;;;20.40;;
65863;SDS011;52639;51.180;20.460;2023-02-15T01:49:28;46.75;;;19.15;;
65863;SDS011;52639;51.180;20.460;2023-02-15T01:53:31;47.80;;;19.00;;
65863;SDS011;52639;51.180;20.460;2023-02-15T01:57:37;48.33;;;19.77;;
65863;SDS011;52639;51.180;20.460;2023-02-15T02:01:43;43.90;;;18.98;;
65863;SDS011;52639;51.180;20.460;2023-02-15T02:05:46;45.90;;;18.50;;
65863;SDS011;52639;51.180;20.460;2023-02-15T02:09:49;42.10;;;19.23;;
65863;SDS011;52639;51.180;20.460;2023-02-15T02:13:52;45.63;;;19.77;;
65863;SDS011;52639;51.180;20.460;2023-02-15T02:18:03;46.85;;;18.85;;
65863;SDS011;52639;51.180;20.460;2023-02-15T02:22:18;40.50;;;17.70;;
65863;SDS011;52639;51.180;20.460;2023-02-15T02:27:00;38.50;;;16.73;;
65863;SDS011;52639;51.180;20.460;2023-02-15T02:31:39;41.75;;;17.75;;
65863;SDS011;52639;51.180;20.460;2023-02-15T02:35:59;50.20;;;20.20;;
65863;SDS011;52639;51.180;20.460;2023-02-15T02:40:10;52.38;;;20.48;;
65863;SDS011;52639;51.180;20.460;2023-02-15T02:44:21;48.55;;;18.77;;
65863;SDS011;52639;51.180;20.460;2023-02-15T02:48:27;46.65;;;18.25;;
65863;SDS011;52639;51.180;20.460;2023-02-15T02:52:37;48.33;;;19.35;;
65863;SDS011;52639;51.180;20.460;2023-02-15T02:56:42;42.63;;;18.45;;
65863;SDS011;52639;51.180;20.460;2023-02-15T03:00:50;41.42;;;17.20;;
65863;SDS011;52639;51.180;20.460;2023-02-15T03:04:57;43.53;;;16.67;;
65863;SDS011;52639;51.180;20.460;2023-02-15T03:09:08;48.30;;;18.38;;
65863;SDS011;52639;51.180;20.460;2023-02-15T03:13:15;38.60;;;17.38;;
65863;SDS011;52639;51.180;20.460;2023-02-15T03:17:20;35.53;;;15.60;;
65863;SDS011;52639;51.180;20.460;2023-02-15T03:21:27;49.25;;;18.85;;
65863;SDS011;52639;51.180;20.460;2023-02-15T03:25:37;44.95;;;19.65;;
65863;SDS011;52639;51.180;20.460;2023-02-15T03:29:43;44.25;;;17.77;;
65863;SDS011;52639;51.180;20.460;2023-02-15T03:33:49;40.60;;;17.25;;
65863;SDS011;52639;51.180;20.460;2023-02-15T03:37:57;49.40;;;20.85;;
65863;SDS011;52639;51.180;20.460;2023-02-15T03:42:06;45.50;;;20.85;;
65863;SDS011;52639;51.180;20.460;2023-02-15T03:46:15;81.85;;;32.70;;
65863;SDS011;52639;51.180;20.460;2023-02-15T03:50:24;53.15;;;20.85;;
65863;SDS011;52639;51.180;20.460;2023-02-15T03:54:48;41.70;;;15.75;;
65863;SDS011;52639;51.180;20.460;2023-02-15T03:58:53;49.70;;;22.73;;
65863;SDS011;52639;51.180;20.460;2023-02-15T04:03:17;40.60;;;16.73;;
65863;SDS011;52639;51.180;20.460;2023-02-15T04:07:26;72.72;;;27.13;;
65863;SDS011;52639;51.180;20.460;2023-02-15T04:11:30;76.75;;;26.35;;
65863;SDS011;52639;51.180;20.460;2023-02-15T04:15:34;70.55;;;27.00;;
65863;SDS011;52639;51.180;20.460;2023-02-15T04:19:55;41.25;;;17.83;;
65863;SDS011;52639;51.180;20.460;2023-02-15T04:24:15;44.42;;;15.73;;
65863;SDS011;52639;51.180;20.460;2023-02-15T04:28:36;40.25;;;17.30;;
65863;SDS011;52639;51.180;20.460;2023-02-15T04:32:40;48.42;;;23.10;;
65863;SDS011;52639;51.180;20.460;2023-02-15T04:36:44;44.08;;;19.88;;
65863;SDS011;52639;51.180;20.460;2023-02-15T04:40:49;41.35;;;17.08;;
65863;SDS011;52639;51.180;20.460;2023-02-15T04:44:52;44.63;;;18.95;;
65863;SDS011;52639;51.180;20.460;2023-02-15T04:48:57;58.50;;;24.10;;
65863;SDS011;52639;51.180;20.460;2023-02-15T04:53:01;43.33;;;17.40;;
65863;SDS011;52639;51.180;20.460;2023-02-15T04:57:04;44.92;;;17.75;;
65863;SDS011;52639;51.180;20.460;2023-02-15T05:01:07;45.42;;;18.35;;
65863;SDS011;52639;51.180;20.460;2023-02-15T05:05:12;45.58;;;18.20;;
65863;SDS011;52639;51.180;20.460;2023-02-15T05:09:16;46.90;;;19.10;;
65863;SDS011;52639;51.180;20.460;2023-02-15T05:13:19;58.22;;;22.75;;
65863;SDS011;52639;51.180;20.460;2023-02-15T05:17:22;46.95;;;19.38;;
65863;SDS011;52639;51.180;20.460;2023-02-15T05:21:26;48.50;;;17.30;;
65863;SDS011;52639;51.180;20.460;2023-02-15T05:25:29;50.75;;;20.65;;
65863;SDS011;52639;51.180;20.460;2023-02-15T05:29:50;49.85;;;21.23;;
65863;SDS011;52639;51.180;20.460;2023-02-15T05:33:53;56.17;;;19.85;;
65863;SDS011;52639;51.180;20.460;2023-02-15T05:37:57;40.55;;;14.85;;
65863;SDS011;52639;51.180;20.460;2023-02-15T05:42:00;41.65;;;14.75;;
65863;SDS011;52639;51.180;20.460;2023-02-15T05:46:04;43.60;;;16.13;;
65863;SDS011;52639;51.180;20.460;2023-02-15T05:50:08;50.00;;;18.80;;
65863;SDS011;52639;51.180;20.460;2023-02-15T05:54:13;50.08;;;14.07;;
65863;SDS011;52639;51.180;20.460;2023-02-15T05:58:16;49.78;;;16.90;;
65863;SDS011;52639;51.180;20.460;2023-02-15T06:02:19;39.53;;;13.55;;
65863;SDS011;52639;51.180;20.460;2023-02-15T06:06:22;42.00;;;13.82;;
65863;SDS011;52639;51.180;20.460;2023-02-15T06:10:27;52.75;;;18.45;;
65863;SDS011;52639;51.180;20.460;2023-02-15T06:14:30;39.22;;;15.45;;
65863;SDS011;52639;51.180;20.460;2023-02-15T06:18:33;46.50;;;17.48;;
65863;SDS011;52639;51.180;20.460;2023-02-15T06:22:36;44.67;;;15.90;;
65863;SDS011;52639;51.180;20.460;2023-02-15T06:26:40;46.55;;;15.43;;
65863;SDS011;52639;51.180;20.460;2023-02-15T06:30:43;47.72;;;18.27;;
65863;SDS011;52639;51.180;20.460;2023-02-15T06:34:46;48.63;;;17.50;;
65863;SDS011;52639;51.180;20.460;2023-02-15T06:38:49;32.70;;;12.82;;
65863;SDS011;52639;51.180;20.460;2023-02-15T06:42:56;47.58;;;19.67;;
65863;SDS011;52639;51.180;20.460;2023-02-15T06:47:01;23.23;;;10.38;;
65863;SDS011;52639;51.180;20.460;2023-02-15T06:51:07;42.20;;;13.50;;
65863;SDS011;52639;51.180;20.460;2023-02-15T06:55:11;38.08;;;14.57;;
65863;SDS011;52639;51.180;20.460;2023-02-15T06:59:17;30.70;;;11.90;;
65863;SDS011;52639;51.180;20.460;2023-02-15T07:03:20;36.03;;;14.07;;
65863;SDS011;52639;51.180;20.460;2023-02-15T07:07:23;48.25;;;15.95;;
65863;SDS011;52639;51.180;20.460;2023-02-15T07:11:26;40.08;;;15.07;;
65863;SDS011;52639;51.180;20.460;2023-02-15T07:15:48;47.00;;;13.73;;
65863;SDS011;52639;51.180;20.460;2023-02-15T07:19:51;39.17;;;14.57;;
65863;SDS011;52639;51.180;20.460;2023-02-15T07:23:55;34.25;;;13.35;;
65863;SDS011;52639;51.180;20.460;2023-02-15T07:27:59;37.55;;;14.75;;
65863;SDS011;52639;51.180;20.460;2023-02-15T07:32:05;30.95;;;12.50;;
65863;SDS011;52639;51.180;20.460;2023-02-15T07:36:08;34.33;;;13.70;;
65863;SDS011;52639;51.180;20.460;2023-02-15T07:40:13;42.78;;;14.43;;
65863;SDS011;52639;51.180;20.460;2023-02-15T07:44:16;43.80;;;16.80;;
65863;SDS011;52639;51.180;20.460;2023-02-15T07:48:20;41.05;;;13.65;;
65863;SDS011;52639;51.180;20.460;2023-02-15T07:52:23;36.67;;;14.93;;
65863;SDS011;52639;51.180;20.460;2023-02-15T07:56:28;44.95;;;15.27;;
65863;SDS011;52639;51.180;20.460;2023-02-15T08:01:24;35.28;;;14.45;;
65863;SDS011;52639;51.180;20.460;2023-02-15T08:05:29;48.45;;;17.48;;
65863;SDS011;52639;51.180;20.460;2023-02-15T08:09:33;35.00;;;12.73;;
65863;SDS011;52639;51.180;20.460;2023-02-15T08:13:35;42.00;;;15.35;;
65863;SDS011;52639;51.180;20.460;2023-02-15T08:17:58;45.65;;;16.88;;
65863;SDS011;52639;51.180;20.460;2023-02-15T08:22:13;42.25;;;15.18;;
65863;SDS011;52639;51.180;20.460;2023-02-15T08:26:17;43.42;;;16.35;;
65863;SDS011;52639;51.180;20.460;2023-02-15T08:30:20;35.03;;;14.75;;
65863;SDS011;52639;51.180;20.460;2023-02-15T08:34:25;31.05;;;10.85;;
65863;SDS011;52639;51.180;20.460;2023-02-15T08:38:28;47.33;;;19.25;;
65863;SDS011;52639;51.180;20.460;2023-02-15T08:42:32;47.90;;;16.70;;
65863;SDS011;52639;51.180;20.460;2023-02-15T08:46:35;41.20;;;18.50;;
65863;SDS011;52639;51.180;20.460;2023-02-15T08:50:44;40.47;;;17.35;;
65863;SDS011;52639;51.180;20.460;2023-02-15T08:54:46;40.30;;;16.05;;
65863;SDS011;52639;51.180;20.460;2023-02-15T08:58:54;38.08;;;15.45;;
65863;SDS011;52639;51.180;20.460;2023-02-15T09:02:57;35.88;;;13.68;;
65863;SDS011;52639;51.180;20.460;2023-02-15T09:07:04;38.58;;;15.02;;
65863;SDS011;52639;51.180;20.460;2023-02-15T09:11:23;72.75;;;24.50;;
65863;SDS011;52639;51.180;20.460;2023-02-15T09:15:29;44.85;;;16.75;;
65863;SDS011;52639;51.180;20.460;2023-02-15T09:19:33;45.33;;;17.60;;
65863;SDS011;52639;51.180;20.460;2023-02-15T09:23:42;46.63;;;21.88;;
65863;SDS011;52639;51.180;20.460;2023-02-15T09:27:50;24.92;;;9.75;;
65863;SDS011;52639;51.180;20.460;2023-02-15T09:31:54;70.47;;;32.97;;
65863;SDS011;52639;51.180;20.460;2023-02-15T09:35:57;14.65;;;7.10;;
65863;SDS011;52639;51.180;20.460;2023-02-15T09:40:01;57.45;;;22.60;;
65863;SDS011;52639;51.180;20.460;2023-02-15T09:44:10;41.92;;;14.82;;
65863;SDS011;52639;51.180;20.460;2023-02-15T09:48:24;61.03;;;21.13;;
65863;SDS011;52639;51.180;20.460;2023-02-15T09:52:43;59.90;;;20.75;;
65863;SDS011;52639;51.180;20.460;2023-02-15T09:56:57;69.45;;;23.13;;
65863;SDS011;52639;51.180;20.460;2023-02-15T10:01:04;59.97;;;19.02;;
65863;SDS011;52639;51.180;20.460;2023-02-15T10:05:19;72.68;;;26.58;;
65863;SDS011;52639;51.180;20.460;2023-02-15T10:09:37;68.20;;;26.08;;
65863;SDS011;52639;51.180;20.460;2023-02-15T10:13:56;77.43;;;30.67;;
65863;SDS011;52639;51.180;20.460;2023-02-15T10:18:19;39.92;;;15.90;;
65863;SDS011;52639;51.180;20.460;2023-02-15T10:22:34;55.10;;;22.15;;
65863;SDS011;52639;51.180;20.460;2023-02-15T10:26:44;45.33;;;22.48;;
65863;SDS011;52639;51.180;20.460;2023-02-15T10:30:51;51.78;;;30.88;;
65863;SDS011;52639;51.180;20.460;2023-02-15T10:34:58;59.97;;;29.70;;
65863;SDS011;52639;51.180;20.460;2023-02-15T10:39:05;44.85;;;18.67;;
65863;SDS011;52639;51.180;20.460;2023-02-15T10:48:11;50.72;;;18.65;;
65863;SDS011;52639;51.180;20.460;2023-02-15T10:52:26;45.78;;;17.83;;
65863;SDS011;52639;51.180;20.460;2023-02-15T10:56:38;54.67;;;20.42;;
65863;SDS011;52639;51.180;20.460;2023-02-15T11:00:49;42.42;;;17.67;;
65863;SDS011;52639;51.180;20.460;2023-02-15T11:05:06;43.83;;;15.43;;
65863;SDS011;52639;51.180;20.460;2023-02-15T11:09:22;41.00;;;18.97;;
65863;SDS011;52639;51.180;20.460;2023-02-15T11:13:29;52.13;;;18.80;;
65863;SDS011;52639;51.180;20.460;2023-02-15T11:17:37;46.20;;;20.30;;
65863;SDS011;52639;51.180;20.460;2023-02-15T11:21:47;31.60;;;14.77;;
65863;SDS011;52639;51.180;20.460;2023-02-15T11:25:54;43.05;;;19.15;;
65863;SDS011;52639;51.180;20.460;2023-02-15T11:30:00;46.30;;;19.27;;
65863;SDS011;52639;51.180;20.460;2023-02-15T11:34:12;39.78;;;18.10;;
65863;SDS011;52639;51.180;20.460;2023-02-15T11:38:22;40.95;;;17.98;;
65863;SDS011;52639;51.180;20.460;2023-02-15T11:42:30;45.50;;;17.38;;
65863;SDS011;52639;51.180;20.460;2023-02-15T11:46:36;39.97;;;16.05;;
65863;SDS011;52639;51.180;20.460;2023-02-15T11:50:42;44.33;;;16.45;;
65863;SDS011;52639;51.180;20.460;2023-02-15T11:54:49;33.22;;;14.75;;
65863;SDS011;52639;51.180;20.460;2023-02-15T11:58:54;38.00;;;16.75;;
65863;SDS011;52639;51.180;20.460;2023-02-15T12:03:01;36.53;;;16.17;;
65863;SDS011;52639;51.180;20.460;2023-02-15T12:07:13;45.72;;;17.77;;
65863;SDS011;52639;51.180;20.460;2023-02-15T12:11:28;35.53;;;16.37;;
65863;SDS011;52639;51.180;20.460;2023-02-15T12:15:36;39.35;;;17.15;;
65863;SDS011;52639;51.180;20.460;2023-02-15T12:19:40;44.30;;;18.10;;
65863;SDS011;52639;51.180;20.460;2023-02-15T12:23:46;43.10;;;19.20;;
65863;SDS011;52639;51.180;20.460;2023-02-15T12:27:52;34.60;;;16.75;;
65863;SDS011;52639;51.180;20.460;2023-02-15T12:31:55;41.35;;;18.17;;
65863;SDS011;52639;51.180;20.460;2023-02-15T12:36:00;44.00;;;16.58;;
65863;SDS011;52639;51.180;20.460;2023-02-15T12:40:18;42.10;;;17.67;;
65863;SDS011;52639;51.180;20.460;2023-02-15T12:44:25;36.03;;;14.85;;
65863;SDS011;52639;51.180;20.460;2023-02-15T12:48:30;36.00;;;16.08;;
65863;SDS011;52639;51.180;20.460;2023-02-15T12:52:33;38.90;;;17.77;;
65863;SDS011;52639;51.180;20.460;2023-02-15T12:56:36;33.88;;;15.20;;
65863;SDS011;52639;51.180;20.460;2023-02-15T13:00:40;33.97;;;16.33;;
65863;SDS011;52639;51.180;20.460;2023-02-15T13:04:47;31.98;;;15.02;;
65863;SDS011;52639;51.180;20.460;2023-02-15T13:08:52;37.03;;;17.38;;
65863;SDS011;52639;51.180;20.460;2023-02-15T13:12:57;36.38;;;15.68;;
65863;SDS011;52639;51.180;20.460;2023-02-15T13:17:05;36.35;;;14.65;;
65863;SDS011;52639;51.180;20.460;2023-02-15T13:21:09;37.60;;;16.17;;
65863;SDS011;52639;51.180;20.460;2023-02-15T13:25:17;42.63;;;15.60;;
65863;SDS011;52639;51.180;20.460;2023-02-15T13:29:24;39.03;;;16.35;;
65863;SDS011;52639;51.180;20.460;2023-02-15T13:33:31;38.85;;;16.50;;
65863;SDS011;52639;51.180;20.460;2023-02-15T13:37:41;40.30;;;15.70;;
65863;SDS011;52639;51.180;20.460;2023-02-15T13:41:56;37.38;;;16.05;;
65863;SDS011;52639;51.180;20.460;2023-02-15T13:46:07;36.30;;;15.88;;
65863;SDS011;52639;51.180;20.460;2023-02-15T13:50:31;35.45;;;14.73;;
65863;SDS011;52639;51.180;20.460;2023-02-15T13:54:49;37.65;;;17.77;;
65863;SDS011;52639;51.180;20.460;2023-02-15T13:59:24;45.35;;;18.27;;
65863;SDS011;52639;51.180;20.460;2023-02-15T14:03:51;49.33;;;17.60;;
65863;SDS011;52639;51.180;20.460;2023-02-15T14:08:32;42.42;;;17.30;;
65863;SDS011;52639;51.180;20.460;2023-02-15T14:12:58;43.15;;;19.20;;
65863;SDS011;52639;51.180;20.460;2023-02-15T14:17:18;39.85;;;17.17;;
65863;SDS011;52639;51.180;20.460;2023-02-15T14:21:27;39.63;;;18.30;;
65863;SDS011;52639;51.180;20.460;2023-02-15T14:25:37;32.95;;;14.32;;
65863;SDS011;52639;51.180;20.460;2023-02-15T14:29:49;38.88;;;16.90;;
65863;SDS011;52639;51.180;20.460;2023-02-15T14:33:56;37.92;;;17.10;;
65863;SDS011;52639;51.180;20.460;2023-02-15T14:38:00;42.92;;;18.55;;
65863;SDS011;52639;51.180;20.460;2023-02-15T14:42:18;39.17;;;17.85;;
65863;SDS011;52639;51.180;20.460;2023-02-15T14:46:30;39.97;;;17.67;;
65863;SDS011;52639;51.180;20.460;2023-02-15T14:50:41;41.80;;;17.85;;
65863;SDS011;52639;51.180;20.460;2023-02-15T14:54:54;43.67;;;17.40;;
65863;SDS011;52639;51.180;20.460;2023-02-15T14:59:13;45.60;;;18.38;;
65863;SDS011;52639;51.180;20.460;2023-02-15T15:03:20;44.05;;;17.80;;
65863;SDS011;52639;51.180;20.460;2023-02-15T15:07:26;21.77;;;8.63;;
65863;SDS011;52639;51.180;20.460;2023-02-15T15:11:38;43.55;;;17.33;;
65863;SDS011;52639;51.180;20.460;2023-02-15T15:15:46;43.17;;;16.90;;
65863;SDS011;52639;51.180;20.460;2023-02-15T15:19:59;51.42;;;19.73;;
65863;SDS011;52639;51.180;20.460;2023-02-15T15:24:04;66.35;;;24.13;;
65863;SDS011;52639;51.180;20.460;2023-02-15T15:28:08;49.83;;;20.02;;
65863;SDS011;52639;51.180;20.460;2023-02-15T15:32:13;46.30;;;17.10;;
65863;SDS011;52639;51.180;20.460;2023-02-15T15:41:21;60.35;;;21.27;;
65863;SDS011;52639;51.180;20.460;2023-02-15T15:45:40;66.80;;;22.90;;
65863;SDS011;52639;51.180;20.460;2023-02-15T15:49:57;49.10;;;18.42;;
65863;SDS011;52639;51.180;20.460;2023-02-15T15:54:11;38.97;;;15.18;;
65863;SDS011;52639;51.180;20.460;2023-02-15T15:58:17;48.45;;;17.05;;
65863;SDS011;52639;51.180;20.460;2023-02-15T16:02:22;52.03;;;18.10;;
65863;SDS011;52639;51.180;20.460;2023-02-15T16:06:32;59.67;;;24.35;;
65863;SDS011;52639;51.180;20.460;2023-02-15T16:10:43;66.45;;;23.13;;
65863;SDS011;52639;51.180;20.460;2023-02-15T16:14:56;54.45;;;20.58;;
65863;SDS011;52639;51.180;20.460;2023-02-15T16:19:00;131.98;;;48.80;;
65863;SDS011;52639;51.180;20.460;2023-02-15T16:23:12;89.53;;;32.50;;
65863;SDS011;52639;51.180;20.460;2023-02-15T16:27:44;60.38;;;23.42;;
65863;SDS011;52639;51.180;20.460;2023-02-15T16:31:56;63.25;;;21.92;;
65863;SDS011;52639;51.180;20.460;2023-02-15T16:36:12;59.65;;;21.38;;
65863;SDS011;52639;51.180;20.460;2023-02-15T16:40:30;64.35;;;20.92;;
65863;SDS011;52639;51.180;20.460;2023-02-15T16:44:45;64.75;;;23.75;;
65863;SDS011;52639;51.180;20.460;2023-02-15T16:48:52;56.97;;;19.65;;
65863;SDS011;52639;51.180;20.460;2023-02-15T16:52:59;71.60;;;22.20;;
65863;SDS011;52639;51.180;20.460;2023-02-15T16:57:13;109.55;;;36.35;;
65863;SDS011;52639;51.180;20.460;2023-02-15T17:01:25;94.95;;;30.33;;
65863;SDS011;52639;51.180;20.460;2023-02-15T17:05:31;91.80;;;36.47;;
65863;SDS011;52639;51.180;20.460;2023-02-15T17:09:52;101.65;;;35.47;;
65863;SDS011;52639;51.180;20.460;2023-02-15T17:14:31;83.28;;;31.98;;
65863;SDS011;52639;51.180;20.460;2023-02-15T17:18:44;96.43;;;31.48;;
65863;SDS011;52639;51.180;20.460;2023-02-15T17:22:49;220.95;;;70.50;;
65863;SDS011;52639;51.180;20.460;2023-02-15T17:26:54;192.25;;;68.50;;
65863;SDS011;52639;51.180;20.460;2023-02-15T17:31:05;140.13;;;48.95;;
65863;SDS011;52639;51.180;20.460;2023-02-15T17:35:16;113.07;;;37.35;;
65863;SDS011;52639;51.180;20.460;2023-02-15T17:39:23;89.05;;;31.15;;
65863;SDS011;52639;51.180;20.460;2023-02-15T17:43:32;180.77;;;68.35;;
65863;SDS011;52639;51.180;20.460;2023-02-15T17:47:39;314.55;;;106.07;;
65863;SDS011;52639;51.180;20.460;2023-02-15T17:51:44;246.98;;;91.03;;
65863;SDS011;52639;51.180;20.460;2023-02-15T17:55:50;323.05;;;92.70;;
65863;SDS011;52639;51.180;20.460;2023-02-15T17:59:56;310.17;;;71.00;;
65863;SDS011;52639;51.180;20.460;2023-02-15T18:04:19;121.22;;;38.08;;
65863;SDS011;52639;51.180;20.460;2023-02-15T18:08:41;166.32;;;53.38;;
65863;SDS011;52639;51.180;20.460;2023-02-15T18:13:02;161.20;;;61.40;;
65863;SDS011;52639;51.180;20.460;2023-02-15T18:17:09;218.48;;;90.10;;
65863;SDS011;52639;51.180;20.460;2023-02-15T18:21:21;165.97;;;68.83;;
65863;SDS011;52639;51.180;20.460;2023-02-15T18:25:27;125.63;;;45.88;;
65863;SDS011;52639;51.180;20.460;2023-02-15T18:29:32;138.20;;;52.15;;
65863;SDS011;52639;51.180;20.460;2023-02-15T18:33:38;192.98;;;68.40;;
65863;SDS011;52639;51.180;20.460;2023-02-15T18:37:53;174.60;;;60.38;;
65863;SDS011;52639;51.180;20.460;2023-02-15T18:41:58;183.27;;;66.45;;
65863;SDS011;52639;51.180;20.460;2023-02-15T18:46:03;120.00;;;47.22;;
65863;SDS011;52639;51.180;20.460;2023-02-15T18:50:15;157.03;;;57.03;;
65863;SDS011;52639;51.180;20.460;2023-02-15T18:54:26;152.95;;;46.83;;
65863;SDS011;52639;51.180;20.460;2023-02-15T18:58:31;124.40;;;44.80;;
65863;SDS011;52639;51.180;20.460;2023-02-15T19:02:36;111.75;;;37.42;;
65863;SDS011;52639;51.180;20.460;2023-02-15T19:06:43;121.97;;;41.85;;
65863;SDS011;52639;51.180;20.460;2023-02-15T19:10:55;191.88;;;72.18;;
65863;SDS011;52639;51.180;20.460;2023-02-15T19:15:03;183.52;;;65.43;;
65863;SDS011;52639;51.180;20.460;2023-02-15T19:19:12;148.15;;;52.53;;
65863;SDS011;52639;51.180;20.460;2023-02-15T19:23:22;190.73;;;60.55;;
65863;SDS011;52639;51.180;20.460;2023-02-15T19:27:38;199.35;;;61.10;;
65863;SDS011;52639;51.180;20.460;2023-02-15T19:31:43;301.33;;;81.88;;
65863;SDS011;52639;51.180;20.460;2023-02-15T19:36:02;477.70;;;127.05;;
65863;SDS011;52639;51.180;20.460;2023-02-15T19:40:19;323.38;;;89.50;;
65863;SDS011;52639;51.180;20.460;2023-02-15T19:44:35;267.95;;;62.08;;
65863;SDS011;52639;51.180;20.460;2023-02-15T19:48:51;404.80;;;105.15;;
65863;SDS011;52639;51.180;20.460;2023-02-15T19:53:03;407.80;;;103.68;;
65863;SDS011;52639;51.180;20.460;2023-02-15T19:58:01;243.70;;;65.50;;
65863;SDS011;52639;51.180;20.460;2023-02-15T20:02:15;468.08;;;123.22;;
65863;SDS011;52639;51.180;20.460;2023-02-15T20:06:29;384.77;;;104.32;;
65863;SDS011;52639;51.180;20.460;2023-02-15T20:10:55;234.38;;;58.45;;
65863;SDS011;52639;51.180;20.460;2023-02-15T20:15:33;191.38;;;52.72;;
65863;SDS011;52639;51.180;20.460;2023-02-15T20:20:10;167.25;;;46.58;;
65863;SDS011;52639;51.180;20.460;2023-02-15T20:24:20;136.93;;;43.75;;
65863;SDS011;52639;51.180;20.460;2023-02-15T20:28:35;147.88;;;47.25;;
65863;SDS011;52639;51.180;20.460;2023-02-15T20:32:44;181.52;;;48.92;;
65863;SDS011;52639;51.180;20.460;2023-02-15T20:37:03;153.35;;;38.20;;
65863;SDS011;52639;51.180;20.460;2023-02-15T20:41:16;84.53;;;29.90;;
65863;SDS011;52639;51.180;20.460;2023-02-15T20:45:44;106.30;;;33.75;;
65863;SDS011;52639;51.180;20.460;2023-02-15T20:49:54;113.63;;;32.90;;
65863;SDS011;52639;51.180;20.460;2023-02-15T20:54:04;182.48;;;54.25;;
65863;SDS011;52639;51.180;20.460;2023-02-15T20:58:20;105.78;;;34.00;;
65863;SDS011;52639;51.180;20.460;2023-02-15T21:02:32;122.10;;;36.33;;
65863;SDS011;52639;51.180;20.460;2023-02-15T21:06:40;152.60;;;51.25;;
65863;SDS011;52639;51.180;20.460;2023-02-15T21:10:48;154.48;;;49.38;;
65863;SDS011;52639;51.180;20.460;2023-02-15T21:14:56;123.20;;;35.53;;
65863;SDS011;52639;51.180;20.460;2023-02-15T21:19:01;99.47;;;31.23;;
65863;SDS011;52639;51.180;20.460;2023-02-15T21:23:15;90.40;;;29.08;;
65863;SDS011;52639;51.180;20.460;2023-02-15T21:27:25;82.82;;;27.85;;
65863;SDS011;52639;51.180;20.460;2023-02-15T21:31:31;132.40;;;34.65;;
65863;SDS011;52639;51.180;20.460;2023-02-15T21:35:36;105.15;;;31.33;;
65863;SDS011;52639;51.180;20.460;2023-02-15T21:39:41;92.60;;;29.65;;
65863;SDS011;52639;51.180;20.460;2023-02-15T21:43:49;134.02;;;38.13;;
65863;SDS011;52639;51.180;20.460;2023-02-15T21:48:10;100.55;;;30.50;;
65863;SDS011;52639;51.180;20.460;2023-02-15T21:52:15;161.05;;;49.88;;
65863;SDS011;52639;51.180;20.460;2023-02-15T21:56:22;77.45;;;26.70;;
65863;SDS011;52639;51.180;20.460;2023-02-15T22:00:28;82.28;;;27.58;;
65863;SDS011;52639;51.180;20.460;2023-02-15T22:04:33;82.93;;;26.73;;
65863;SDS011;52639;51.180;20.460;2023-02-15T22:08:36;85.55;;;27.30;;
65863;SDS011;52639;51.180;20.460;2023-02-15T22:12:41;78.30;;;25.92;;
65863;SDS011;52639;51.180;20.460;2023-02-15T22:16:45;70.65;;;22.77;;
65863;SDS011;52639;51.180;20.460;2023-02-15T22:20:49;80.97;;;25.58;;
65863;SDS011;52639;51.180;20.460;2023-02-15T22:24:52;69.97;;;24.00;;
65863;SDS011;52639;51.180;20.460;2023-02-15T22:28:55;82.03;;;23.88;;
65863;SDS011;52639;51.180;20.460;2023-02-15T22:33:00;82.43;;;26.50;;
65863;SDS011;52639;51.180;20.460;2023-02-15T22:37:03;94.78;;;25.30;;
65863;SDS011;52639;51.180;20.460;2023-02-15T22:41:08;75.20;;;24.00;;
65863;SDS011;52639;51.180;20.460;2023-02-15T22:45:14;76.15;;;22.73;;
65863;SDS011;52639;51.180;20.460;2023-02-15T22:49:20;74.28;;;23.35;;
65863;SDS011;52639;51.180;20.460;2023-02-15T22:53:23;85.10;;;27.13;;
65863;SDS011;52639;51.180;20.460;2023-02-15T22:57:27;81.55;;;23.77;;
65863;SDS011;52639;51.180;20.460;2023-02-15T23:01:32;79.30;;;22.88;;
65863;SDS011;52639;51.180;20.460;2023-02-15T23:05:38;66.05;;;23.27;;
65863;SDS011;52639;51.180;20.460;2023-02-15T23:09:42;67.90;;;21.75;;
65863;SDS011;52639;51.180;20.460;2023-02-15T23:13:46;72.18;;;21.73;;
65863;SDS011;52639;51.180;20.460;2023-02-15T23:17:50;63.00;;;20.10;;
65863;SDS011;52639;51.180;20.460;2023-02-15T23:21:55;66.80;;;22.40;;
65863;SDS011;52639;51.180;20.460;2023-02-15T23:25:58;79.80;;;25.67;;
65863;SDS011;52639;51.180;20.460;2023-02-15T23:30:02;77.60;;;23.52;;
65863;SDS011;52639;51.180;20.460;2023-02-15T23:34:11;59.53;;;19.83;;
65863;SDS011;52639;51.180;20.460;2023-02-15T23:38:18;76.90;;;23.58;;
65863;SDS011;52639;51.180;20.460;2023-02-15T23:42:24;87.85;;;25.40;;
65863;SDS011;52639;51.180;20.460;2023-02-15T23:46:32;64.85;;;21.73;;
65863;SDS011;52639;51.180;20.460;2023-02-15T23:58:48;53.78;;;18.05;;
